Helen Merril — WDF2994 — position and weather

sailwx.info

Track history (hours):
 
Tides and Currents Weather Stations Pressure Air Temp Water Temp Dewpoint Dewpoint Depression Visibility Wind Speed Wind Dir Waves Ship Positions

Helen Merril

Owner: SCF Waxler Marine LLC, St. Rose, LA. More information available from US FCC via Universal Licensing System and Coast Guard Vessel Documentation Center.

Last reported at 2016-Sep-30 13:28 UTC. Time now 2016-Oct-01 07:06 UTC.
Position N 29°57' W 093°52'.

Length 33 m; draft 3 m.

Type: . MMSI: 367434260.

Date/timePositionNaut miles runAvg speedWind from/ knotsBaromVisibWave heightAir tempDewpointWater temp
2016-Sep-30 13:28N 29°57' W 093°52'11 0.4
2016-Sep-29 07:10N 29°49' W 093°59'  
2016-Sep-24 03:33N 29°33' W 094°54'6 6.4
2016-Sep-24 02:33N 29°38' W 094°58'6 5.8
2016-Sep-24 01:33N 29°43' W 095°01'5 0.1
2016-Sep-22 04:16N 29°47' W 095°04'1 0.6
2016-Sep-22 03:21N 29°47' W 095°05'1 0.0
2016-Sep-21 16:26N 29°47' W 095°04'0 0.0
2016-Sep-21 09:32N 29°47' W 095°04'0 0.1
2016-Sep-21 08:27N 29°47' W 095°04'0 0.0
2016-Sep-21 05:33N 29°47' W 095°04'0 0.0
2016-Sep-21 03:33N 29°47' W 095°04'0 0.0
2016-Sep-21 02:26N 29°47' W 095°04'  
Track history (hours):
 
Tides and Currents Weather Stations Pressure Air Temp Water Temp Dewpoint Dewpoint Depression Visibility Wind Speed Wind Dir Waves Ship Positions

Helen Merril

Owner: SCF Waxler Marine LLC, St. Rose, LA. More information available from US FCC via Universal Licensing System and Coast Guard Vessel Documentation Center.

Last reported at 2016-Sep-30 13:28 UTC. Time now 2016-Oct-01 07:06 UTC.
Position N 29°57' W 093°52'.

Length 33 m; draft 3 m.

Type: . MMSI: 367434260.

Date/timePositionNaut miles runAvg speedWind from/ knotsBaromVisibWave heightAir tempDewpointWater temp
2016-Sep-30 13:28N 29°57' W 093°52'11 0.4
2016-Sep-29 07:10N 29°49' W 093°59'  
2016-Sep-24 03:33N 29°33' W 094°54'6 6.4
2016-Sep-24 02:33N 29°38' W 094°58'6 5.8
2016-Sep-24 01:33N 29°43' W 095°01'5 0.1
2016-Sep-22 04:16N 29°47' W 095°04'1 0.6
2016-Sep-22 03:21N 29°47' W 095°05'1 0.0
2016-Sep-21 16:26N 29°47' W 095°04'0 0.0
2016-Sep-21 09:32N 29°47' W 095°04'0 0.1
2016-Sep-21 08:27N 29°47' W 095°04'0 0.0
2016-Sep-21 05:33N 29°47' W 095°04'0 0.0
2016-Sep-21 03:33N 29°47' W 095°04'0 0.0
2016-Sep-21 02:26N 29°47' W 095°04'  

Dump ship's entire track history